Time;durP1;ratioP1;P1;durP2;ratioP2;P2;SDS_P1;SDS_P2;PMS_P1;PMS_P2;Temp;Humidity;BMP_temperature;BMP_pressure;BME280_temperature;BME280_humidity;BME280_pressure;Samples;Min_cycle;Max_cycle;Signal;HPM_P1;HPM_P2
2022/03/10 00:00:20;;;;;;;18.13;11.93;;;1.80;91.70;;;1.49;62.47;95101.84;4973600;28;20506;-60
2022/03/10 00:02:47;;;;;;;20.03;12.60;;;1.80;91.40;;;1.48;61.76;95105.38;4977784;28;20891;-55
2022/03/10 00:05:18;;;;;;;20.10;11.97;;;1.80;91.40;;;1.45;62.04;95100.38;4977095;28;20912;-57
2022/03/10 00:07:45;;;;;;;20.53;12.80;;;1.80;91.40;;;1.42;62.70;95112.53;4966031;28;21008;-56
2022/03/10 00:10:12;;;;;;;19.60;12.37;;;1.80;91.40;;;1.40;62.57;95109.19;4971867;28;20455;-59
2022/03/10 00:12:47;;;;;;;21.60;13.00;;;1.80;91.60;;;1.35;62.32;95100.84;4974760;28;20482;-59
2022/03/10 00:15:14;;;;;;;18.83;13.00;;;1.70;91.80;;;1.36;62.07;95110.25;4977050;28;20453;-56
2022/03/10 00:17:41;;;;;;;16.67;12.03;;;1.70;91.50;;;1.33;61.76;95100.06;4972843;28;20486;-59
2022/03/10 00:20:10;;;;;;;18.30;11.93;;;1.70;91.30;;;1.32;62.49;95103.56;4969915;28;20455;-56
2022/03/10 00:22:49;;;;;;;17.93;11.37;;;1.70;91.50;;;1.30;61.89;95097.66;4965490;28;20983;-57
2022/03/10 00:25:16;;;;;;;14.27;10.90;;;1.70;91.30;;;1.27;62.30;95092.63;4974079;28;20462;-59
2022/03/10 00:27:44;;;;;;;15.57;11.47;;;1.60;91.50;;;1.24;62.22;95097.97;4983708;28;20842;-57
2022/03/10 00:30:12;;;;;;;18.43;11.30;;;1.60;91.30;;;1.22;62.74;95097.19;4970506;28;20528;-59
2022/03/10 00:32:44;;;;;;;16.53;11.37;;;1.60;91.30;;;1.20;61.62;95101.59;4968510;28;20475;-58
2022/03/10 00:35:11;;;;;;;15.10;11.27;;;1.60;91.40;;;1.16;62.10;95100.06;4976634;28;20454;-60
2022/03/10 00:37:38;;;;;;;19.50;11.50;;;1.50;91.60;;;1.13;61.95;95095.91;4973235;28;20479;-57
2022/03/10 00:40:09;;;;;;;18.37;11.30;;;1.50;91.70;;;1.12;62.58;95090.81;4970388;28;20522;-59
2022/03/10 00:42:38;;;;;;;17.13;11.30;;;1.50;91.70;;;1.11;63.02;95095.13;4973831;28;20801;-59
2022/03/10 00:45:07;;;;;;;20.53;12.57;;;1.50;91.60;;;1.13;63.08;95084.69;4973861;28;21001;-56
2022/03/10 00:47:34;;;;;;;16.00;10.83;;;1.50;91.70;;;1.13;62.60;95084.69;4984694;28;21155;-58
2022/03/10 00:50:01;;;;;;;18.73;11.63;;;1.50;91.70;;;1.14;62.25;95086.38;4967107;28;20487;-57
2022/03/10 00:52:28;;;;;;;15.93;10.97;;;1.50;91.80;;;1.13;62.32;95079.50;4972356;28;20471;-59
2022/03/10 00:54:56;;;;;;;12.03;9.80;;;1.50;91.80;;;1.11;63.23;95081.34;4977577;28;20462;-59
2022/03/10 00:57:25;;;;;;;18.80;11.57;;;1.50;91.70;;;1.11;62.30;95076.16;4978343;28;20604;-59
2022/03/10 00:59:52;;;;;;;18.53;11.67;;;1.50;91.70;;;1.10;62.24;95074.47;4974068;28;20544;-56
2022/03/10 01:02:19;;;;;;;13.83;10.60;;;1.50;91.70;;;1.09;61.83;95080.59;4971720;28;20526;-57
2022/03/10 01:04:46;;;;;;;16.73;10.90;;;1.40;91.60;;;1.09;62.29;95078.84;4967580;28;20454;-56
2022/03/10 01:07:14;;;;;;;17.47;11.50;;;1.50;91.70;;;1.09;62.12;95083.19;4974302;28;20555;-60
2022/03/10 01:09:41;;;;;;;15.57;11.30;;;1.50;91.60;;;1.06;62.16;95077.22;4976123;28;20490;-56
2022/03/10 01:12:08;;;;;;;18.23;10.60;;;1.40;91.50;;;1.04;62.88;95076.47;4971418;28;20468;-57
2022/03/10 01:14:37;;;;;;;12.50;10.07;;;1.40;91.50;;;1.03;61.83;95079.16;4973830;28;20452;-57
2022/03/10 01:17:05;;;;;;;19.20;10.73;;;1.40;91.50;;;1.01;61.88;95074.03;4978263;28;20447;-59
2022/03/10 01:19:32;;;;;;;18.37;10.13;;;1.40;91.60;;;1.02;62.61;95072.28;4977387;28;20452;-55
2022/03/10 01:21:59;;;;;;;15.47;10.80;;;1.40;91.60;;;1.03;62.09;95079.97;4968163;28;20471;-55
2022/03/10 01:24:26;;;;;;;16.93;10.30;;;1.40;91.50;;;1.03;62.73;95069.63;4971924;28;20462;-59
2022/03/10 01:26:54;;;;;;;17.40;10.23;;;1.40;91.50;;;1.03;62.83;95074.78;4973114;28;20983;-58
2022/03/10 01:29:21;;;;;;;15.03;10.73;;;1.40;91.60;;;1.02;62.80;95067.09;4970440;28;20610;-58
2022/03/10 01:31:50;;;;;;;18.53;11.20;;;1.40;91.50;;;1.01;62.02;95076.63;4972536;28;20462;-60
2022/03/10 01:34:17;;;;;;;17.40;12.03;;;1.40;91.40;;;0.99;61.89;95070.69;4967084;28;21042;-58
2022/03/10 01:36:45;;;;;;;13.53;10.60;;;1.40;91.40;;;0.98;62.10;95070.78;4971981;28;20447;-56
2022/03/10 01:39:12;;;;;;;18.27;11.30;;;1.40;91.50;;;0.97;62.23;95080.28;4979220;28;21108;-59
2022/03/10 01:41:39;;;;;;;17.80;12.07;;;1.30;91.40;;;0.96;62.88;95072.59;4974346;28;20520;-56
2022/03/10 01:44:08;;;;;;;17.37;11.30;;;1.30;91.40;;;0.95;62.25;95076.94;4969104;28;20742;-59
2022/03/10 01:46:36;;;;;;;18.43;12.30;;;1.30;91.40;;;0.93;62.86;95064.97;4978552;28;20513;-56
2022/03/10 01:49:05;;;;;;;12.53;10.63;;;1.30;91.50;;;0.94;62.15;95064.06;4975836;28;20611;-58
2022/03/10 01:51:32;;;;;;;24.13;12.13;;;1.30;91.40;;;0.93;62.52;95067.56;4973067;28;20456;-59
2022/03/10 01:53:59;;;;;;;18.30;11.57;;;1.30;91.50;;;0.95;61.76;95070.94;4969167;28;20558;-55
2022/03/10 01:56:27;;;;;;;16.37;11.20;;;1.30;91.50;;;0.94;62.19;95064.91;4968480;28;20462;-56
2022/03/10 01:58:55;;;;;;;17.90;12.03;;;1.30;91.40;;;0.93;62.78;95068.41;4980762;28;20900;-56
2022/03/10 02:01:22;;;;;;;17.33;11.77;;;1.30;91.50;;;0.92;61.49;95074.50;4981744;28;20995;-59
2022/03/10 02:03:49;;;;;;;16.70;10.70;;;1.30;91.40;;;0.90;62.75;95071.16;4973621;28;20471;-60
2022/03/10 02:06:18;;;;;;;21.73;11.07;;;1.30;91.50;;;0.87;61.96;95073.91;4973236;28;20446;-60
2022/03/10 02:11:30;;;;;;;15.17;11.17;;;1.20;91.40;;;0.84;62.75;95066.28;4978098;28;20462;-58
2022/03/10 02:13:57;;;;;;;16.37;11.97;;;1.20;91.40;;;0.83;62.16;95069.78;4969682;28;20859;-59
2022/03/10 02:19:09;;;;;;;17.90;12.07;;;1.20;91.40;;;0.76;61.61;95066.66;4973343;28;20458;-56
2022/03/10 02:21:37;;;;;;;18.87;11.10;;;1.20;91.50;;;0.73;61.94;95069.41;4978106;28;20450;-58
2022/03/10 02:24:07;;;;;;;16.30;11.40;;;1.10;91.40;;;0.69;62.38;95070.47;4972692;28;20482;-56
2022/03/10 02:26:34;;;;;;;28.23;11.30;;;1.10;91.50;;;0.65;62.28;95071.50;4977379;28;20455;-57
2022/03/10 02:29:01;;;;;;;18.20;12.33;;;1.00;91.50;;;0.60;62.64;95070.91;4973926;28;20497;-58
2022/03/10 02:31:28;;;;;;;18.87;12.00;;;1.00;91.60;;;0.56;62.66;95077.13;4981857;28;20974;-57
2022/03/10 02:33:56;;;;;;;16.50;11.00;;;1.00;91.60;;;0.52;62.36;95074.69;4979367;28;20475;-55
2022/03/10 02:36:24;;;;;;;15.57;11.30;;;0.90;91.60;;;0.52;62.68;95079.03;4973069;28;20514;-58
2022/03/10 02:38:51;;;;;;;15.27;10.70;;;0.90;91.50;;;0.52;62.16;95069.50;4977297;28;20489;-59
2022/03/10 02:41:20;;;;;;;30.80;12.40;;;0.90;91.60;;;0.50;62.89;95081.69;4972638;28;20538;-59
2022/03/10 02:43:47;;;;;;;16.80;12.57;;;0.90;91.60;;;0.47;62.48;95083.59;4977762;28;21023;-58
2022/03/10 02:46:14;;;;;;;15.10;11.17;;;0.90;91.70;;;0.46;62.02;95081.91;4975862;28;20967;-55
2022/03/10 02:48:41;;;;;;;16.37;11.60;;;0.90;91.70;;;0.44;62.44;95087.16;4979040;28;20994;-58
2022/03/10 02:51:09;;;;;;;15.87;11.33;;;0.90;91.80;;;0.41;62.52;95084.72;4975071;28;20793;-54
2022/03/10 02:53:36;;;;;;;17.30;11.70;;;0.80;91.80;;;0.39;62.67;95077.94;4981355;28;20471;-54
2022/03/10 02:56:04;;;;;;;18.20;12.07;;;0.80;91.80;;;0.37;63.35;95084.94;4969041;28;20979;-55
2022/03/10 02:58:32;;;;;;;18.57;11.10;;;0.80;91.80;;;0.37;62.44;95084.94;4977047;28;20871;-59
2022/03/10 03:01:00;;;;;;;20.40;12.07;;;0.70;91.80;;;0.35;63.12;95091.03;4974898;28;20529;-57
2022/03/10 03:03:27;;;;;;;15.63;10.40;;;0.70;91.90;;;0.33;63.29;95095.44;4984001;28;21230;-55
2022/03/10 03:05:54;;;;;;;19.27;11.10;;;0.70;91.80;;;0.29;62.65;95091.31;4975067;28;20860;-57
2022/03/10 03:08:22;;;;;;;17.67;10.80;;;0.70;91.40;;;0.25;62.69;95096.69;4972538;28;20475;-59
2022/03/10 03:10:49;;;;;;;21.97;13.07;;;0.70;91.60;;;0.20;63.42;95096.09;4976406;28;21122;-56
2022/03/10 03:13:16;;;;;;;21.17;14.17;;;0.60;91.90;;;0.16;63.95;95105.75;4976145;28;20514;-58
2022/03/10 03:15:45;;;;;;;25.67;14.57;;;0.50;92.20;;;0.10;63.52;95106.03;4978136;28;20506;-57
2022/03/10 03:18:12;;;;;;;25.90;14.70;;;0.50;92.50;;;0.06;63.88;95101.91;4978153;28;20541;-57
2022/03/10 03:20:40;;;;;;;26.87;15.37;;;0.50;92.40;;;0.02;63.83;95095.19;4973857;28;20461;-55
2022/03/10 03:23:07;;;;;;;28.67;14.57;;;0.40;92.60;;;-0.02;63.94;95099.66;4978577;28;20474;-59
2022/03/10 03:25:34;;;;;;;25.63;16.13;;;0.40;92.50;;;-0.06;64.46;95098.97;4975833;28;20455;-59
2022/03/10 03:28:01;;;;;;;24.63;14.27;;;0.30;92.90;;;-0.11;63.90;95106.09;4972459;28;20475;-57
2022/03/10 03:30:29;;;;;;;29.03;15.87;;;0.30;92.80;;;-0.15;64.17;95103.75;4975911;28;20877;-59
2022/03/10 03:32:58;;;;;;;30.40;16.03;;;0.30;92.90;;;-0.19;64.17;95103.00;4974170;28;20887;-54
2022/03/10 03:35:25;;;;;;;21.57;12.20;;;0.20;92.70;;;-0.23;63.07;95117.00;4986213;28;20443;-57
2022/03/10 03:37:52;;;;;;;14.70;8.83;;;0.20;92.30;;;-0.30;61.25;95115.59;4974530;28;20474;-58
2022/03/10 03:40:20;;;;;;;14.83;9.53;;;0.10;90.60;;;-0.35;61.41;95113.22;4978515;28;20454;-59
2022/03/10 03:42:47;;;;;;;16.43;10.40;;;0.10;90.60;;;-0.40;60.97;95110.00;4981308;28;21161;-58
2022/03/10 03:45:15;;;;;;;20.13;10.80;;;0.00;90.10;;;-0.42;60.58;95114.38;4987230;28;20455;-59
2022/03/10 03:47:43;;;;;;;16.43;10.50;;;0.00;90.10;;;-0.44;60.60;95114.44;4971426;28;20544;-58
2022/03/10 03:50:12;;;;;;;14.13;9.97;;;0.00;90.00;;;-0.45;59.81;95111.94;4974311;28;20487;-59
2022/03/10 03:52:39;;;;;;;16.20;10.00;;;0.00;88.60;;;-0.47;59.63;95119.75;4975316;28;20504;-55
2022/03/10 03:55:08;;;;;;;20.07;11.43;;;0.00;88.40;;;-0.50;59.95;95114.72;4980697;28;20565;-56
2022/03/10 03:57:35;;;;;;;18.13;10.57;;;0.00;89.00;;;-0.46;59.83;95121.44;4979121;28;20499;-59
2022/03/10 04:00:02;;;;;;;18.10;10.37;;;0.00;88.80;;;-0.44;59.89;95129.13;4974918;28;20796;-59
2022/03/10 04:02:31;;;;;;;15.60;10.20;;;0.00;88.50;;;-0.45;59.22;95133.44;4971004;28;20851;-56
2022/03/10 04:04:58;;;;;;;12.87;8.27;;;0.00;87.40;;;-0.46;58.25;95131.75;4973677;28;20452;-58
2022/03/10 04:07:27;;;;;;;10.73;6.87;;;-0.10;86.00;;;-0.50;57.04;95137.13;4973653;28;20474;-59
2022/03/10 04:09:54;;;;;;;11.50;7.07;;;-0.10;82.90;;;-0.55;57.46;95142.50;4965486;28;20930;-56
2022/03/10 04:12:21;;;;;;;11.53;6.57;;;-0.10;83.80;;;-0.58;58.13;95142.63;4968995;28;20833;-58
2022/03/10 04:14:49;;;;;;;8.90;6.50;;;-0.10;84.90;;;-0.60;57.91;95145.28;4975944;28;20534;-57
2022/03/10 04:17:16;;;;;;;10.17;7.43;;;-0.20;83.90;;;-0.62;57.38;95141.94;4977213;28;21086;-59
2022/03/10 04:19:43;;;;;;;12.53;7.67;;;-0.20;83.70;;;-0.62;57.23;95141.06;4969414;28;20461;-59
2022/03/10 04:22:10;;;;;;;13.07;8.23;;;-0.20;83.10;;;-0.64;57.17;95137.72;4974351;28;20867;-56
2022/03/10 04:24:39;;;;;;;9.03;7.37;;;-0.20;83.50;;;-0.68;57.67;95139.59;4975918;28;20988;-57
2022/03/10 04:27:06;;;;;;;7.57;5.83;;;-0.20;84.10;;;-0.72;57.18;95146.63;4983089;28;20534;-58
2022/03/10 04:29:34;;;;;;;10.90;7.60;;;-0.30;83.00;;;-0.74;57.45;95148.44;4971749;28;20487;-59
2022/03/10 04:32:01;;;;;;;12.47;8.00;;;-0.30;83.30;;;-0.77;57.08;95143.41;4970651;28;20459;-57
2022/03/10 04:34:28;;;;;;;10.63;5.87;;;-0.30;82.70;;;-0.78;56.29;95146.06;4975495;28;20515;-56
2022/03/10 04:36:55;;;;;;;9.70;5.80;;;-0.30;81.70;;;-0.82;57.29;95144.50;4983360;28;20497;-60
2022/03/10 04:39:23;;;;;;;11.80;6.47;;;-0.40;82.60;;;-0.88;56.89;95139.59;4976228;28;20813;-59
2022/03/10 04:41:52;;;;;;;11.17;6.67;;;-0.40;82.20;;;-0.96;55.83;95152.81;4973203;28;20456;-54
2022/03/10 04:44:19;;;;;;;6.37;5.73;;;-0.50;81.40;;;-1.03;55.98;95159.16;4978942;28;20486;-55
2022/03/10 04:46:47;;;;;;;8.80;5.80;;;-0.50;80.90;;;-1.06;56.65;95156.69;4977429;28;20575;-58
2022/03/10 04:49:15;;;;;;;10.87;5.83;;;-0.60;81.80;;;-1.04;58.82;95171.19;4978333;28;20558;-57
2022/03/10 04:51:42;;;;;;;8.47;5.70;;;-0.60;86.10;;;-0.98;58.93;95170.13;4970754;28;20572;-57
2022/03/10 04:54:10;;;;;;;9.40;6.50;;;-0.60;86.10;;;-0.91;58.42;95171.56;4976804;28;20479;-58
2022/03/10 04:56:37;;;;;;;7.57;6.13;;;-0.50;84.90;;;-0.87;59.04;95180.84;4983560;28;20466;-56
2022/03/10 04:59:06;;;;;;;11.80;6.77;;;-0.50;86.00;;;-0.81;59.55;95178.00;4986147;28;20485;-56
2022/03/10 05:01:33;;;;;;;6.23;4.90;;;-0.40;87.00;;;-0.72;61.18;95182.78;4973150;28;20466;-58
2022/03/10 05:04:00;;;;;;;5.83;4.77;;;-0.30;90.40;;;-0.60;58.71;95185.78;4975157;28;20479;-57
2022/03/10 05:06:28;;;;;;;6.43;4.53;;;-0.20;87.20;;;-0.52;57.00;95188.88;4979602;28;20443;-57
2022/03/10 05:08:55;;;;;;;4.70;4.30;;;-0.10;84.40;;;-0.47;57.30;95197.25;4976570;28;20479;-57
2022/03/10 05:11:22;;;;;;;5.93;4.40;;;-0.10;84.60;;;-0.46;56.44;95198.94;4971146;28;20663;-57
2022/03/10 05:13:49;;;;;;;6.47;5.07;;;0.00;81.80;;;-0.48;56.57;95205.06;4976900;28;20478;-57
2022/03/10 05:16:18;;;;;;;6.87;4.47;;;-0.10;81.90;;;-0.49;55.80;95203.41;4976873;28;20451;-57
2022/03/10 05:18:45;;;;;;;7.87;4.63;;;-0.10;80.90;;;-0.38;55.83;95211.53;4982019;28;20998;-57
2022/03/10 05:21:13;;;;;;;6.43;5.00;;;0.00;81.30;;;-0.28;55.14;95212.84;4975286;28;20526;-57
2022/03/10 05:23:40;;;;;;;5.83;5.20;;;0.20;80.50;;;-0.25;54.99;95222.19;4969758;28;20491;-58
2022/03/10 05:26:07;;;;;;;8.40;5.20;;;0.20;79.50;;;-0.29;54.40;95231.81;4977993;28;20546;-57
2022/03/10 05:28:35;;;;;;;5.73;5.20;;;0.20;78.30;;;-0.33;53.81;95235.44;4981917;28;20478;-58
2022/03/10 05:31:02;;;;;;;11.73;5.43;;;0.10;77.50;;;-0.40;53.74;95237.44;4983350;28;20645;-59
2022/03/10 05:33:31;;;;;;;6.87;5.43;;;0.10;77.40;;;-0.44;54.14;95240.22;4973655;28;20479;-59
2022/03/10 05:35:59;;;;;;;4.80;4.33;;;0.00;77.90;;;-0.46;54.71;95242.03;4969693;28;20463;-59
2022/03/10 05:38:26;;;;;;;6.43;4.97;;;0.00;78.20;;;-0.45;54.93;95248.88;4971494;28;20563;-58
2022/03/10 05:40:53;;;;;;;6.07;5.47;;;-0.10;79.20;;;-0.46;54.77;95250.63;4977989;28;20458;-59
2022/03/10 05:43:20;;;;;;;8.83;5.70;;;0.00;78.80;;;-0.47;54.73;95245.50;4968842;28;20478;-56
2022/03/10 05:45:48;;;;;;;7.77;5.60;;;-0.10;78.70;;;-0.47;54.82;95248.94;4977706;28;20458;-60
2022/03/10 05:48:15;;;;;;;7.27;5.70;;;-0.10;79.40;;;-0.44;55.51;95251.38;4977398;28;20470;-57
2022/03/10 05:50:44;;;;;;;8.30;5.50;;;0.00;79.30;;;-0.34;55.11;95253.59;4970427;28;20582;-59
2022/03/10 05:53:11;;;;;;;7.27;5.40;;;0.00;79.30;;;-0.20;55.51;95256.44;4966782;28;21168;-56
2022/03/10 05:55:39;;;;;;;13.33;7.20;;;0.20;79.60;;;-0.03;55.31;95255.72;4976616;28;20598;-59
2022/03/10 05:58:06;;;;;;;14.77;8.30;;;0.30;79.80;;;0.07;54.31;95261.31;4980600;28;20475;-56
2022/03/10 06:00:34;;;;;;;14.00;8.13;;;0.40;78.80;;;0.20;53.80;95259.88;4986504;28;20510;-57
2022/03/10 06:03:01;;;;;;;22.40;11.20;;;0.60;78.60;;;0.35;53.61;95263.53;4981291;28;20583;-59
2022/03/10 06:05:28;;;;;;;26.53;13.80;;;0.70;77.00;;;0.52;53.20;95267.94;4976645;28;20462;-55
2022/03/10 06:07:57;;;;;;;23.50;13.57;;;0.80;77.10;;;0.71;53.02;95260.19;4981645;28;20470;-55
2022/03/10 06:10:24;;;;;;;19.73;11.30;;;1.00;76.20;;;0.96;52.50;95270.25;4980961;28;20953;-57
2022/03/10 06:12:51;;;;;;;16.93;9.83;;;1.20;76.10;;;1.29;52.11;95271.31;4981575;28;20478;-57
2022/03/10 06:15:19;;;;;;;15.53;9.40;;;1.50;76.20;;;1.63;52.60;95269.66;4977151;28;20492;-59
2022/03/10 06:17:46;;;;;;;17.07;8.37;;;1.80;74.20;;;1.96;50.37;95278.34;4982264;28;20473;-57
2022/03/10 06:20:14;;;;;;;10.40;7.23;;;2.10;72.40;;;2.31;50.94;95282.66;4978307;28;20740;-55
2022/03/10 06:22:42;;;;;;;9.03;6.50;;;2.40;72.40;;;2.67;50.29;95273.84;4985256;28;20481;-59
2022/03/10 06:25:11;;;;;;;11.53;6.80;;;2.80;71.30;;;3.00;47.97;95270.34;4976240;28;20466;-58
2022/03/10 06:27:38;;;;;;;8.20;5.70;;;3.10;68.00;;;3.32;48.03;95286.78;4979272;28;20466;-58
2022/03/10 06:30:07;;;;;;;5.73;5.17;;;3.40;67.50;;;3.65;47.43;95277.16;4981527;28;20495;-57
2022/03/10 06:32:34;;;;;;;10.03;5.30;;;3.70;66.30;;;4.00;47.26;95287.28;4987508;28;20548;-58
2022/03/10 06:35:01;;;;;;;5.53;5.03;;;4.10;64.60;;;4.31;45.80;95284.53;4976695;28;20484;-59
2022/03/10 06:37:29;;;;;;;6.10;5.23;;;4.40;62.30;;;4.61;44.75;95290.59;4978038;28;20481;-58
2022/03/10 06:39:56;;;;;;;4.57;4.17;;;4.70;59.50;;;4.84;43.46;95286.59;4979967;28;20467;-59
2022/03/10 06:42:25;;;;;;;5.60;4.67;;;4.90;57.50;;;5.10;43.18;95284.97;4988134;28;20480;-59
2022/03/10 06:44:52;;;;;;;7.20;5.03;;;5.20;56.60;;;5.37;43.68;95295.41;4977507;28;20518;-58
2022/03/10 06:47:20;;;;;;;7.60;5.03;;;5.40;56.80;;;5.66;43.27;95295.34;4974876;28;20463;-57
2022/03/10 06:49:47;;;;;;;4.90;4.20;;;5.70;56.60;;;5.94;40.62;95290.91;4981443;28;20460;-57
2022/03/10 06:52:14;;;;;;;4.57;3.83;;;6.00;52.80;;;6.23;39.29;95304.69;4981565;28;20680;-57
2022/03/10 06:54:42;;;;;;;4.40;3.83;;;6.30;51.40;;;6.52;39.03;95306.28;4984275;28;20880;-59
2022/03/10 06:57:09;;;;;;;4.47;4.07;;;6.50;50.80;;;6.76;39.55;95312.44;4976096;28;20455;-58
2022/03/10 06:59:38;;;;;;;5.43;4.20;;;6.80;50.90;;;7.03;40.18;95311.44;4979622;28;20490;-58
2022/03/10 07:02:06;;;;;;;5.57;4.57;;;7.00;51.10;;;7.35;38.08;95308.34;4982153;28;20458;-58
2022/03/10 07:04:33;;;;;;;3.70;3.50;;;7.30;49.80;;;7.68;38.09;95317.34;4977192;28;20595;-59
2022/03/10 07:07:00;;;;;;;6.27;4.47;;;7.70;48.70;;;8.05;39.01;95322.50;4970613;28;20968;-57
2022/03/10 07:09:28;;;;;;;6.80;4.43;;;8.00;49.50;;;8.44;39.90;95320.50;4977945;28;20451;-60
2022/03/10 07:11:55;;;;;;;4.73;4.23;;;8.30;50.00;;;8.76;37.38;95320.69;4978803;28;20498;-56
2022/03/10 07:14:22;;;;;;;5.60;5.10;;;8.70;47.20;;;9.09;35.69;95316.44;4986353;28;20458;-57
2022/03/10 07:16:51;;;;;;;4.97;4.50;;;9.00;45.00;;;9.45;33.27;95311.88;4975762;28;20465;-58
2022/03/10 07:19:18;;;;;;;5.57;4.43;;;9.30;43.60;;;9.82;35.74;95319.44;4977314;28;20474;-56
2022/03/10 07:21:46;;;;;;;7.23;5.00;;;9.60;44.00;;;10.22;34.91;95312.69;4976952;28;20467;-57
2022/03/10 07:24:13;;;;;;;4.63;4.30;;;10.00;42.30;;;10.62;35.56;95322.56;4986113;28;20478;-57
2022/03/10 07:26:40;;;;;;;5.10;4.60;;;10.40;43.60;;;11.05;32.50;95318.91;4979442;28;20467;-58
2022/03/10 07:29:08;;;;;;;6.23;4.20;;;10.80;40.60;;;11.44;34.42;95329.59;4974618;28;20475;-57
2022/03/10 07:31:35;;;;;;;5.77;4.60;;;11.20;41.90;;;11.85;32.51;95319.03;4980575;28;20498;-59
2022/03/10 07:34:04;;;;;;;5.60;5.10;;;11.60;40.30;;;12.25;30.51;95318.09;4985259;28;20520;-59
2022/03/10 07:36:32;;;;;;;5.67;5.17;;;12.00;39.50;;;12.57;32.29;95321.41;4984889;28;20917;-59
2022/03/10 07:38:59;;;;;;;5.03;4.40;;;12.30;38.10;;;12.79;27.27;95323.72;4975805;28;20521;-56
2022/03/10 07:41:27;;;;;;;3.80;3.60;;;12.70;34.00;;;12.91;27.62;95325.22;4977195;28;20581;-57
2022/03/10 07:43:54;;;;;;;3.50;3.20;;;12.90;33.00;;;13.09;31.28;95321.88;4985470;28;20479;-57
2022/03/10 07:46:22;;;;;;;5.33;4.23;;;13.10;37.20;;;13.46;28.77;95328.94;4979619;28;20464;-56
2022/03/10 07:48:51;;;;;;;5.60;5.10;;;13.40;35.10;;;13.83;30.53;95329.88;4971575;28;20474;-57
2022/03/10 07:51:20;;;;;;;3.83;3.53;;;13.90;36.70;;;14.26;31.87;95338.94;4977847;28;20505;-59
2022/03/10 07:53:48;;;;;;;4.77;4.37;;;14.30;38.20;;;14.74;32.02;95335.06;4981299;28;20557;-56
2022/03/10 07:56:15;;;;;;;3.67;3.37;;;14.80;39.30;;;14.94;27.68;95340.19;4986095;28;20889;-58
2022/03/10 07:58:42;;;;;;;4.53;4.00;;;15.10;33.90;;;14.44;28.74;95336.28;4974192;28;20548;-59
2022/03/10 08:01:09;;;;;;;4.60;4.17;;;15.00;33.90;;;13.84;28.38;95335.03;4977264;28;20534;-58
2022/03/10 08:03:38;;;;;;;4.70;4.10;;;14.50;33.40;;;13.61;27.41;95334.59;4981678;28;20483;-58
2022/03/10 08:06:05;;;;;;;3.07;2.87;;;14.20;32.60;;;13.47;30.12;95340.38;4973808;28;20451;-58
2022/03/10 08:08:34;;;;;;;4.17;3.77;;;14.00;34.60;;;13.50;28.35;95335.63;4972209;28;20502;-57
2022/03/10 08:11:03;;;;;;;3.03;2.83;;;13.90;32.20;;;13.62;29.27;95333.63;4973267;28;20491;-58
2022/03/10 08:13:31;;;;;;;3.50;3.03;;;13.90;35.10;;;13.91;30.80;95338.75;4978498;28;20498;-57
2022/03/10 08:15:58;;;;;;;4.00;3.70;;;14.10;36.60;;;14.08;29.42;95337.13;4983455;28;20553;-56
2022/03/10 08:18:26;;;;;;;4.77;4.07;;;14.20;34.80;;;13.71;28.21;95338.03;4977564;28;20463;-59
2022/03/10 08:20:55;;;;;;;3.93;3.53;;;14.00;32.00;;;12.88;28.50;95325.50;4971350;28;20952;-56
2022/03/10 08:23:22;;;;;;;5.50;4.57;;;13.40;32.50;;;11.93;29.70;95340.28;4977840;28;20490;-57
2022/03/10 08:25:51;;;;;;;5.23;4.70;;;12.50;34.50;;;10.99;30.46;95340.50;4980502;28;20446;-54
2022/03/10 08:28:19;;;;;;;6.27;4.37;;;11.60;34.50;;;10.20;30.51;95343.53;4975364;28;20856;-58
2022/03/10 08:30:46;;;;;;;4.33;4.03;;;10.80;34.10;;;9.33;30.94;95339.91;4974380;28;20502;-55
2022/03/10 08:33:13;;;;;;;7.47;4.93;;;10.00;35.10;;;8.56;30.05;95345.81;4977880;28;20855;-56
2022/03/10 08:35:40;;;;;;;3.70;3.40;;;9.20;35.10;;;8.00;31.52;95348.22;4974468;28;20448;-58
2022/03/10 08:38:08;;;;;;;4.43;3.83;;;8.50;36.00;;;7.58;31.22;95353.00;4974964;28;20527;-56
2022/03/10 08:40:35;;;;;;;4.10;3.00;;;8.10;37.20;;;7.13;32.14;95354.34;4971855;28;20452;-57
2022/03/10 08:43:05;;;;;;;4.03;3.77;;;7.60;37.90;;;6.75;32.69;95351.75;4973905;28;20468;-56
2022/03/10 08:45:32;;;;;;;4.60;4.20;;;7.10;38.10;;;6.46;33.18;95351.97;4972781;28;20461;-58
2022/03/10 08:48:00;;;;;;;4.77;3.93;;;6.80;38.60;;;6.60;33.65;95356.22;4981056;28;20999;-58
2022/03/10 08:50:27;;;;;;;5.43;2.87;;;6.90;40.30;;;7.27;33.81;95353.38;4971922;28;20451;-57
2022/03/10 08:52:54;;;;;;;5.63;2.90;;;7.30;39.90;;;7.95;31.56;95355.56;4972712;28;21063;-58
2022/03/10 08:55:22;;;;;;;3.37;3.07;;;7.80;39.30;;;8.19;30.86;95351.13;4977457;28;20836;-58
2022/03/10 08:57:49;;;;;;;4.27;3.53;;;8.10;37.30;;;8.15;31.00;95357.56;4983949;28;20842;-57
2022/03/10 09:00:19;;;;;;;3.43;3.13;;;8.20;36.50;;;8.13;30.33;95346.34;4977726;28;20493;-56
2022/03/10 09:02:46;;;;;;;4.53;3.53;;;8.20;36.70;;;8.08;31.45;95338.84;4973275;28;20574;-58
2022/03/10 09:05:13;;;;;;;5.63;3.53;;;8.20;37.00;;;8.05;30.86;95351.34;4976777;28;20816;-57
2022/03/10 09:07:41;;;;;;;3.83;2.30;;;8.20;36.40;;;8.39;29.60;95349.66;4978028;28;20475;-59
2022/03/10 09:10:10;;;;;;;2.83;2.13;;;8.50;35.20;;;8.65;28.94;95335.59;4971179;28;20886;-57
2022/03/10 09:12:37;;;;;;;3.23;2.90;;;8.60;34.50;;;8.59;29.08;95342.97;4972098;28;20506;-57
2022/03/10 09:15:05;;;;;;;4.80;3.83;;;8.70;35.30;;;8.35;30.56;95347.38;4976498;28;20486;-57
2022/03/10 09:17:34;;;;;;;2.97;2.63;;;8.50;35.80;;;8.11;30.77;95340.41;4977116;28;20543;-59
2022/03/10 09:20:04;;;;;;;4.07;2.23;;;8.40;35.70;;;8.04;29.78;95340.03;4982705;28;20505;-58
2022/03/10 09:22:32;;;;;;;2.40;2.30;;;8.10;34.80;;;8.20;30.10;95339.72;4971106;28;20480;-56
2022/03/10 09:25:02;;;;;;;2.13;1.93;;;8.30;35.00;;;8.61;28.73;95333.22;4974971;28;20520;-57
2022/03/10 09:27:29;;;;;;;2.90;2.27;;;8.70;35.80;;;9.23;29.21;95336.31;4978869;28;20466;-59
2022/03/10 09:29:56;;;;;;;2.07;1.97;;;9.10;34.70;;;9.85;28.00;95339.34;4984608;28;20570;-57
2022/03/10 09:32:24;;;;;;;2.50;2.30;;;9.70;33.80;;;10.31;26.34;95335.59;4975118;28;20512;-59
2022/03/10 09:34:52;;;;;;;2.23;2.03;;;10.20;31.20;;;10.61;26.08;95334.03;4975549;28;20830;-54
2022/03/10 09:37:20;;;;;;;4.60;1.67;;;10.50;30.10;;;10.50;26.30;95337.59;4976571;28;20478;-57
2022/03/10 09:39:47;;;;;;;3.07;2.87;;;10.50;30.10;;;10.08;25.89;95342.72;4983310;28;20461;-56
2022/03/10 09:42:15;;;;;;;4.03;2.97;;;10.20;30.00;;;9.76;27.69;95342.69;4978331;28;22128;-56
2022/03/10 09:44:43;;;;;;;3.90;3.60;;;10.00;31.30;;;9.56;28.28;95341.66;4971570;28;20834;-57
2022/03/10 09:47:10;;;;;;;3.70;3.40;;;9.80;32.70;;;9.62;29.00;95335.94;4977147;28;20462;-58
2022/03/10 09:49:38;;;;;;;2.63;2.47;;;9.70;34.20;;;9.68;26.37;95346.81;4982714;28;20893;-56
2022/03/10 09:52:11;;;;;;;7.30;2.67;;;9.80;31.80;;;9.89;27.36;95346.03;4975473;28;20761;-58
2022/03/10 09:54:38;;;;;;;2.87;2.67;;;10.00;31.20;;;10.02;27.80;95346.72;4973457;28;21140;-57
2022/03/10 09:57:06;;;;;;;3.07;2.77;;;10.10;32.40;;;10.17;25.78;95349.03;4977440;28;20456;-58
2022/03/10 09:59:33;;;;;;;2.63;2.40;;;10.20;29.90;;;10.38;26.49;95346.47;4983105;28;20454;-56
2022/03/10 10:02:02;;;;;;;2.73;2.53;;;10.40;30.00;;;10.72;26.86;95343.66;4972665;28;20853;-59
2022/03/10 10:04:30;;;;;;;2.33;2.23;;;10.70;31.30;;;11.00;24.87;95342.16;4970885;28;20844;-59
2022/03/10 10:07:02;;;;;;;2.50;2.40;;;10.90;29.40;;;11.20;25.83;95343.09;4975124;28;20461;-56
2022/03/10 10:09:53;;;;;;;2.20;2.00;;;11.20;30.00;;;11.38;24.73;95348.56;4974566;28;20455;-56
2022/03/10 10:12:22;;;;;;;2.70;2.50;;;11.30;29.40;;;11.56;25.84;95345.31;4982169;28;20494;-58
2022/03/10 10:14:50;;;;;;;3.77;2.80;;;11.50;29.60;;;11.64;26.13;95350.72;4971444;28;20451;-56
2022/03/10 10:17:17;;;;;;;2.37;2.17;;;11.60;30.40;;;11.62;24.73;95350.03;4975309;28;20890;-57
2022/03/10 10:19:45;;;;;;;3.60;2.33;;;11.50;28.90;;;11.18;24.06;95357.34;4976594;28;20956;-57
2022/03/10 10:22:14;;;;;;;9.33;2.37;;;11.30;27.80;;;10.76;25.25;95356.41;4978232;28;20462;-56
2022/03/10 10:24:50;;;;;;;2.27;2.07;;;11.00;28.90;;;10.38;24.02;95349.94;4973191;28;20539;-57
2022/03/10 10:27:18;;;;;;;2.10;1.90;;;10.60;28.50;;;10.02;25.65;95359.84;4974471;28;20943;-57
2022/03/10 10:29:50;;;;;;;4.60;1.97;;;10.20;28.60;;;9.55;24.97;95355.78;4977194;28;20509;-57